sensor_id;sensor_type;location;lat;lon;timestamp;P1;durP1;ratioP1;P2;durP2;ratioP2
38581;SDS011;24349;53.720;10.014;2023-01-25T00:02:05;34.50;;;22.17;;
38581;SDS011;24349;53.720;10.014;2023-01-25T00:04:31;32.75;;;20.70;;
38581;SDS011;24349;53.720;10.014;2023-01-25T00:06:57;33.42;;;21.33;;
38581;SDS011;24349;53.720;10.014;2023-01-25T00:09:23;28.85;;;19.10;;
38581;SDS011;24349;53.720;10.014;2023-01-25T00:11:50;32.33;;;21.48;;
38581;SDS011;24349;53.720;10.014;2023-01-25T00:14:17;30.48;;;20.83;;
38581;SDS011;24349;53.720;10.014;2023-01-25T00:16:43;28.23;;;18.90;;
38581;SDS011;24349;53.720;10.014;2023-01-25T00:19:09;30.20;;;20.73;;
38581;SDS011;24349;53.720;10.014;2023-01-25T00:21:35;30.08;;;19.65;;
38581;SDS011;24349;53.720;10.014;2023-01-25T00:24:01;33.35;;;21.10;;
38581;SDS011;24349;53.720;10.014;2023-01-25T00:26:28;32.28;;;20.65;;
38581;SDS011;24349;53.720;10.014;2023-01-25T00:28:55;30.25;;;19.02;;
38581;SDS011;24349;53.720;10.014;2023-01-25T00:34:01;31.73;;;20.80;;
38581;SDS011;24349;53.720;10.014;2023-01-25T00:38:58;31.17;;;19.55;;
38581;SDS011;24349;53.720;10.014;2023-01-25T00:41:24;27.50;;;18.20;;
38581;SDS011;24349;53.720;10.014;2023-01-25T00:43:50;28.42;;;18.50;;
38581;SDS011;24349;53.720;10.014;2023-01-25T00:46:16;31.60;;;21.02;;
38581;SDS011;24349;53.720;10.014;2023-01-25T00:48:42;35.38;;;21.73;;
38581;SDS011;24349;53.720;10.014;2023-01-25T00:51:08;33.75;;;20.73;;
38581;SDS011;24349;53.720;10.014;2023-01-25T00:53:34;27.75;;;18.70;;
38581;SDS011;24349;53.720;10.014;2023-01-25T00:55:59;29.80;;;19.83;;
38581;SDS011;24349;53.720;10.014;2023-01-25T00:58:25;34.60;;;19.45;;
38581;SDS011;24349;53.720;10.014;2023-01-25T01:00:52;32.78;;;20.38;;
38581;SDS011;24349;53.720;10.014;2023-01-25T01:03:18;29.73;;;19.92;;
38581;SDS011;24349;53.720;10.014;2023-01-25T01:05:44;35.17;;;20.27;;
38581;SDS011;24349;53.720;10.014;2023-01-25T01:08:10;32.47;;;20.75;;
38581;SDS011;24349;53.720;10.014;2023-01-25T01:10:39;30.75;;;18.77;;
38581;SDS011;24349;53.720;10.014;2023-01-25T01:13:05;27.10;;;18.00;;
38581;SDS011;24349;53.720;10.014;2023-01-25T01:15:31;30.25;;;19.42;;
38581;SDS011;24349;53.720;10.014;2023-01-25T01:18:00;29.30;;;18.30;;
38581;SDS011;24349;53.720;10.014;2023-01-25T01:20:25;29.27;;;18.85;;
38581;SDS011;24349;53.720;10.014;2023-01-25T01:22:51;29.50;;;19.42;;
38581;SDS011;24349;53.720;10.014;2023-01-25T01:25:19;29.00;;;19.08;;
38581;SDS011;24349;53.720;10.014;2023-01-25T01:27:45;29.45;;;19.30;;
38581;SDS011;24349;53.720;10.014;2023-01-25T01:30:10;29.25;;;20.05;;
38581;SDS011;24349;53.720;10.014;2023-01-25T01:32:36;29.30;;;18.25;;
38581;SDS011;24349;53.720;10.014;2023-01-25T01:35:02;29.48;;;18.88;;
38581;SDS011;24349;53.720;10.014;2023-01-25T01:37:27;28.02;;;18.05;;
38581;SDS011;24349;53.720;10.014;2023-01-25T01:39:53;28.98;;;18.52;;
38581;SDS011;24349;53.720;10.014;2023-01-25T01:42:19;32.20;;;20.05;;
38581;SDS011;24349;53.720;10.014;2023-01-25T01:44:46;28.02;;;18.63;;
38581;SDS011;24349;53.720;10.014;2023-01-25T01:47:24;33.72;;;20.05;;
38581;SDS011;24349;53.720;10.014;2023-01-25T01:49:58;31.30;;;19.85;;
38581;SDS011;24349;53.720;10.014;2023-01-25T01:52:35;32.42;;;20.02;;
38581;SDS011;24349;53.720;10.014;2023-01-25T01:55:02;31.85;;;20.13;;
38581;SDS011;24349;53.720;10.014;2023-01-25T01:57:42;29.80;;;20.08;;
38581;SDS011;24349;53.720;10.014;2023-01-25T02:02:43;29.20;;;17.52;;
38581;SDS011;24349;53.720;10.014;2023-01-25T02:05:11;33.17;;;20.70;;
38581;SDS011;24349;53.720;10.014;2023-01-25T02:07:50;31.27;;;20.13;;
38581;SDS011;24349;53.720;10.014;2023-01-25T02:10:18;32.83;;;19.50;;
38581;SDS011;24349;53.720;10.014;2023-01-25T02:12:44;31.25;;;19.27;;
38581;SDS011;24349;53.720;10.014;2023-01-25T02:15:12;32.45;;;19.40;;
38581;SDS011;24349;53.720;10.014;2023-01-25T02:17:39;34.95;;;20.70;;
38581;SDS011;24349;53.720;10.014;2023-01-25T02:25:27;33.35;;;20.15;;
38581;SDS011;24349;53.720;10.014;2023-01-25T02:27:55;30.60;;;20.30;;
38581;SDS011;24349;53.720;10.014;2023-01-25T02:30:26;33.15;;;20.40;;
38581;SDS011;24349;53.720;10.014;2023-01-25T02:32:52;33.85;;;20.10;;
38581;SDS011;24349;53.720;10.014;2023-01-25T02:35:22;32.92;;;19.50;;
38581;SDS011;24349;53.720;10.014;2023-01-25T02:38:00;34.58;;;21.10;;
38581;SDS011;24349;53.720;10.014;2023-01-25T02:40:25;33.55;;;20.38;;
38581;SDS011;24349;53.720;10.014;2023-01-25T02:42:52;32.72;;;19.33;;
38581;SDS011;24349;53.720;10.014;2023-01-25T02:45:18;30.65;;;19.73;;
38581;SDS011;24349;53.720;10.014;2023-01-25T02:47:49;32.65;;;19.85;;
38581;SDS011;24349;53.720;10.014;2023-01-25T02:50:14;32.22;;;19.75;;
38581;SDS011;24349;53.720;10.014;2023-01-25T02:52:40;34.38;;;20.02;;
38581;SDS011;24349;53.720;10.014;2023-01-25T02:55:06;29.67;;;18.33;;
38581;SDS011;24349;53.720;10.014;2023-01-25T02:57:32;36.58;;;21.75;;
38581;SDS011;24349;53.720;10.014;2023-01-25T02:59:58;33.00;;;20.02;;
38581;SDS011;24349;53.720;10.014;2023-01-25T03:02:23;33.70;;;21.05;;
38581;SDS011;24349;53.720;10.014;2023-01-25T03:04:49;32.28;;;18.63;;
38581;SDS011;24349;53.720;10.014;2023-01-25T03:07:15;30.77;;;18.55;;
38581;SDS011;24349;53.720;10.014;2023-01-25T03:09:40;33.42;;;19.75;;
38581;SDS011;24349;53.720;10.014;2023-01-25T03:12:06;29.23;;;16.45;;
38581;SDS011;24349;53.720;10.014;2023-01-25T03:14:32;33.15;;;18.90;;
38581;SDS011;24349;53.720;10.014;2023-01-25T03:16:57;32.55;;;18.55;;
38581;SDS011;24349;53.720;10.014;2023-01-25T03:19:23;31.95;;;18.15;;
38581;SDS011;24349;53.720;10.014;2023-01-25T03:21:48;29.60;;;17.63;;
38581;SDS011;24349;53.720;10.014;2023-01-25T03:24:14;28.58;;;16.00;;
38581;SDS011;24349;53.720;10.014;2023-01-25T03:26:40;28.83;;;17.02;;
38581;SDS011;24349;53.720;10.014;2023-01-25T03:29:26;30.33;;;17.77;;
38581;SDS011;24349;53.720;10.014;2023-01-25T03:31:51;31.42;;;17.27;;
38581;SDS011;24349;53.720;10.014;2023-01-25T03:34:17;27.33;;;17.52;;
38581;SDS011;24349;53.720;10.014;2023-01-25T03:36:42;31.00;;;18.63;;
38581;SDS011;24349;53.720;10.014;2023-01-25T03:39:08;28.77;;;17.17;;
38581;SDS011;24349;53.720;10.014;2023-01-25T03:41:34;30.88;;;16.98;;
38581;SDS011;24349;53.720;10.014;2023-01-25T03:43:59;25.42;;;15.25;;
38581;SDS011;24349;53.720;10.014;2023-01-25T03:46:25;31.30;;;16.63;;
38581;SDS011;24349;53.720;10.014;2023-01-25T03:48:50;28.60;;;16.60;;
38581;SDS011;24349;53.720;10.014;2023-01-25T03:51:16;30.48;;;18.30;;
38581;SDS011;24349;53.720;10.014;2023-01-25T03:53:42;27.10;;;15.65;;
38581;SDS011;24349;53.720;10.014;2023-01-25T03:56:08;29.95;;;17.13;;
38581;SDS011;24349;53.720;10.014;2023-01-25T03:58:36;31.50;;;17.02;;
38581;SDS011;24349;53.720;10.014;2023-01-25T04:01:03;28.15;;;17.70;;
38581;SDS011;24349;53.720;10.014;2023-01-25T04:03:30;27.05;;;15.68;;
38581;SDS011;24349;53.720;10.014;2023-01-25T04:05:56;26.45;;;15.00;;
38581;SDS011;24349;53.720;10.014;2023-01-25T04:08:22;24.15;;;13.95;;
38581;SDS011;24349;53.720;10.014;2023-01-25T04:10:56;25.95;;;14.93;;
38581;SDS011;24349;53.720;10.014;2023-01-25T04:13:25;28.08;;;15.88;;
38581;SDS011;24349;53.720;10.014;2023-01-25T04:15:52;30.40;;;16.00;;
38581;SDS011;24349;53.720;10.014;2023-01-25T04:18:18;30.83;;;16.50;;
38581;SDS011;24349;53.720;10.014;2023-01-25T04:20:44;29.50;;;16.65;;
38581;SDS011;24349;53.720;10.014;2023-01-25T04:23:10;31.27;;;16.67;;
38581;SDS011;24349;53.720;10.014;2023-01-25T04:25:36;31.92;;;17.27;;
38581;SDS011;24349;53.720;10.014;2023-01-25T04:28:02;33.25;;;17.95;;
38581;SDS011;24349;53.720;10.014;2023-01-25T04:30:29;32.35;;;17.20;;
38581;SDS011;24349;53.720;10.014;2023-01-25T04:32:54;30.17;;;16.15;;
38581;SDS011;24349;53.720;10.014;2023-01-25T04:35:20;30.60;;;16.77;;
38581;SDS011;24349;53.720;10.014;2023-01-25T04:37:55;29.73;;;15.52;;
38581;SDS011;24349;53.720;10.014;2023-01-25T04:40:22;36.35;;;17.95;;
38581;SDS011;24349;53.720;10.014;2023-01-25T04:42:47;30.77;;;15.45;;
38581;SDS011;24349;53.720;10.014;2023-01-25T04:45:13;34.63;;;16.73;;
38581;SDS011;24349;53.720;10.014;2023-01-25T04:47:39;33.75;;;16.40;;
38581;SDS011;24349;53.720;10.014;2023-01-25T04:50:05;32.78;;;15.57;;
38581;SDS011;24349;53.720;10.014;2023-01-25T04:52:30;29.98;;;14.80;;
38581;SDS011;24349;53.720;10.014;2023-01-25T04:54:56;36.95;;;17.85;;
38581;SDS011;24349;53.720;10.014;2023-01-25T04:57:22;35.85;;;19.35;;
38581;SDS011;24349;53.720;10.014;2023-01-25T04:59:48;37.08;;;18.15;;
38581;SDS011;24349;53.720;10.014;2023-01-25T05:02:13;37.55;;;18.63;;
38581;SDS011;24349;53.720;10.014;2023-01-25T05:04:39;40.70;;;19.25;;
38581;SDS011;24349;53.720;10.014;2023-01-25T05:07:05;34.45;;;16.80;;
38581;SDS011;24349;53.720;10.014;2023-01-25T05:09:30;37.67;;;18.58;;
38581;SDS011;24349;53.720;10.014;2023-01-25T05:11:56;32.60;;;17.05;;
38581;SDS011;24349;53.720;10.014;2023-01-25T05:14:21;32.60;;;16.92;;
38581;SDS011;24349;53.720;10.014;2023-01-25T05:16:47;36.00;;;19.02;;
38581;SDS011;24349;53.720;10.014;2023-01-25T05:19:13;35.38;;;18.80;;
38581;SDS011;24349;53.720;10.014;2023-01-25T05:21:38;31.63;;;18.77;;
38581;SDS011;24349;53.720;10.014;2023-01-25T05:24:22;31.67;;;17.95;;
38581;SDS011;24349;53.720;10.014;2023-01-25T05:26:48;32.40;;;18.77;;
38581;SDS011;24349;53.720;10.014;2023-01-25T05:29:31;30.33;;;17.10;;
38581;SDS011;24349;53.720;10.014;2023-01-25T05:32:20;32.17;;;17.73;;
38581;SDS011;24349;53.720;10.014;2023-01-25T05:34:47;35.40;;;18.98;;
38581;SDS011;24349;53.720;10.014;2023-01-25T05:37:14;31.70;;;17.48;;
38581;SDS011;24349;53.720;10.014;2023-01-25T05:39:41;35.38;;;18.73;;
38581;SDS011;24349;53.720;10.014;2023-01-25T05:42:10;33.13;;;18.48;;
38581;SDS011;24349;53.720;10.014;2023-01-25T05:44:37;29.45;;;17.25;;
38581;SDS011;24349;53.720;10.014;2023-01-25T05:47:03;28.98;;;17.02;;
38581;SDS011;24349;53.720;10.014;2023-01-25T05:49:28;32.40;;;17.70;;
38581;SDS011;24349;53.720;10.014;2023-01-25T05:51:54;30.40;;;17.35;;
38581;SDS011;24349;53.720;10.014;2023-01-25T05:54:19;29.02;;;17.27;;
38581;SDS011;24349;53.720;10.014;2023-01-25T05:56:47;27.38;;;17.42;;
38581;SDS011;24349;53.720;10.014;2023-01-25T05:59:13;26.67;;;16.77;;
38581;SDS011;24349;53.720;10.014;2023-01-25T06:01:39;25.83;;;15.38;;
38581;SDS011;24349;53.720;10.014;2023-01-25T06:04:05;26.45;;;16.80;;
38581;SDS011;24349;53.720;10.014;2023-01-25T06:06:31;28.85;;;18.65;;
38581;SDS011;24349;53.720;10.014;2023-01-25T06:08:56;28.05;;;17.38;;
38581;SDS011;24349;53.720;10.014;2023-01-25T06:11:22;29.27;;;19.85;;
38581;SDS011;24349;53.720;10.014;2023-01-25T06:13:48;34.35;;;21.08;;
38581;SDS011;24349;53.720;10.014;2023-01-25T06:16:16;30.02;;;20.67;;
38581;SDS011;24349;53.720;10.014;2023-01-25T06:18:42;27.85;;;17.80;;
38581;SDS011;24349;53.720;10.014;2023-01-25T06:21:08;29.83;;;19.30;;
38581;SDS011;24349;53.720;10.014;2023-01-25T06:23:34;32.90;;;19.52;;
38581;SDS011;24349;53.720;10.014;2023-01-25T06:26:01;31.27;;;19.98;;
38581;SDS011;24349;53.720;10.014;2023-01-25T06:28:29;28.70;;;17.73;;
38581;SDS011;24349;53.720;10.014;2023-01-25T06:31:02;29.27;;;18.33;;
38581;SDS011;24349;53.720;10.014;2023-01-25T06:33:29;31.15;;;19.42;;
38581;SDS011;24349;53.720;10.014;2023-01-25T06:35:58;30.17;;;18.98;;
38581;SDS011;24349;53.720;10.014;2023-01-25T06:38:46;31.27;;;19.48;;
38581;SDS011;24349;53.720;10.014;2023-01-25T06:41:16;30.43;;;19.10;;
38581;SDS011;24349;53.720;10.014;2023-01-25T06:43:42;32.35;;;20.88;;
38581;SDS011;24349;53.720;10.014;2023-01-25T06:46:08;31.27;;;19.40;;
38581;SDS011;24349;53.720;10.014;2023-01-25T06:48:38;31.45;;;19.52;;
38581;SDS011;24349;53.720;10.014;2023-01-25T06:51:06;30.58;;;19.13;;
38581;SDS011;24349;53.720;10.014;2023-01-25T06:53:35;33.17;;;20.33;;
38581;SDS011;24349;53.720;10.014;2023-01-25T06:56:04;32.13;;;20.27;;
38581;SDS011;24349;53.720;10.014;2023-01-25T06:58:32;28.15;;;17.80;;
38581;SDS011;24349;53.720;10.014;2023-01-25T07:01:02;28.42;;;19.33;;
38581;SDS011;24349;53.720;10.014;2023-01-25T07:03:29;27.83;;;18.88;;
38581;SDS011;24349;53.720;10.014;2023-01-25T07:05:56;29.38;;;19.35;;
38581;SDS011;24349;53.720;10.014;2023-01-25T07:08:26;28.80;;;17.92;;
38581;SDS011;24349;53.720;10.014;2023-01-25T07:10:53;27.38;;;18.55;;
38581;SDS011;24349;53.720;10.014;2023-01-25T07:13:23;26.73;;;17.48;;
38581;SDS011;24349;53.720;10.014;2023-01-25T07:18:20;29.08;;;17.50;;
38581;SDS011;24349;53.720;10.014;2023-01-25T07:20:46;27.85;;;16.90;;
38581;SDS011;24349;53.720;10.014;2023-01-25T07:23:11;28.33;;;17.38;;
38581;SDS011;24349;53.720;10.014;2023-01-25T07:25:41;26.90;;;17.13;;
38581;SDS011;24349;53.720;10.014;2023-01-25T07:28:08;27.55;;;17.45;;
38581;SDS011;24349;53.720;10.014;2023-01-25T07:30:34;27.63;;;16.85;;
38581;SDS011;24349;53.720;10.014;2023-01-25T07:32:59;26.70;;;16.90;;
38581;SDS011;24349;53.720;10.014;2023-01-25T07:35:25;25.88;;;17.10;;
38581;SDS011;24349;53.720;10.014;2023-01-25T07:37:50;25.63;;;16.55;;
38581;SDS011;24349;53.720;10.014;2023-01-25T07:40:16;25.75;;;16.80;;
38581;SDS011;24349;53.720;10.014;2023-01-25T07:42:42;23.52;;;14.88;;
38581;SDS011;24349;53.720;10.014;2023-01-25T07:45:07;27.90;;;16.90;;
38581;SDS011;24349;53.720;10.014;2023-01-25T07:47:33;28.27;;;17.77;;
38581;SDS011;24349;53.720;10.014;2023-01-25T07:49:59;26.05;;;17.50;;
38581;SDS011;24349;53.720;10.014;2023-01-25T07:52:24;28.60;;;17.60;;
38581;SDS011;24349;53.720;10.014;2023-01-25T07:54:50;25.05;;;16.80;;
38581;SDS011;24349;53.720;10.014;2023-01-25T07:57:16;26.38;;;17.20;;
38581;SDS011;24349;53.720;10.014;2023-01-25T07:59:41;27.42;;;18.23;;
38581;SDS011;24349;53.720;10.014;2023-01-25T08:02:09;30.70;;;19.13;;
38581;SDS011;24349;53.720;10.014;2023-01-25T08:04:36;29.60;;;19.27;;
38581;SDS011;24349;53.720;10.014;2023-01-25T08:07:01;27.02;;;17.42;;
38581;SDS011;24349;53.720;10.014;2023-01-25T08:09:27;27.65;;;17.15;;
38581;SDS011;24349;53.720;10.014;2023-01-25T08:11:52;29.55;;;18.63;;
38581;SDS011;24349;53.720;10.014;2023-01-25T08:14:18;29.00;;;18.73;;
38581;SDS011;24349;53.720;10.014;2023-01-25T08:16:44;23.80;;;13.88;;
38581;SDS011;24349;53.720;10.014;2023-01-25T08:19:09;31.10;;;19.20;;
38581;SDS011;24349;53.720;10.014;2023-01-25T08:21:35;31.33;;;20.13;;
38581;SDS011;24349;53.720;10.014;2023-01-25T08:24:05;31.92;;;19.60;;
38581;SDS011;24349;53.720;10.014;2023-01-25T08:26:32;31.10;;;19.08;;
38581;SDS011;24349;53.720;10.014;2023-01-25T08:28:58;27.23;;;16.55;;
38581;SDS011;24349;53.720;10.014;2023-01-25T08:31:25;28.23;;;18.17;;
38581;SDS011;24349;53.720;10.014;2023-01-25T08:33:53;32.30;;;20.90;;
38581;SDS011;24349;53.720;10.014;2023-01-25T08:36:20;29.02;;;18.40;;
38581;SDS011;24349;53.720;10.014;2023-01-25T08:38:51;32.10;;;20.27;;
38581;SDS011;24349;53.720;10.014;2023-01-25T08:41:19;34.70;;;20.95;;
38581;SDS011;24349;53.720;10.014;2023-01-25T08:43:45;32.63;;;20.50;;
38581;SDS011;24349;53.720;10.014;2023-01-25T08:46:12;28.10;;;18.55;;
38581;SDS011;24349;53.720;10.014;2023-01-25T08:48:38;31.08;;;20.55;;
38581;SDS011;24349;53.720;10.014;2023-01-25T08:51:06;30.50;;;18.55;;
38581;SDS011;24349;53.720;10.014;2023-01-25T08:53:35;32.25;;;20.70;;
38581;SDS011;24349;53.720;10.014;2023-01-25T08:56:04;31.08;;;19.35;;
38581;SDS011;24349;53.720;10.014;2023-01-25T08:58:31;29.42;;;19.10;;
38581;SDS011;24349;53.720;10.014;2023-01-25T09:01:04;30.02;;;20.83;;
38581;SDS011;24349;53.720;10.014;2023-01-25T09:03:35;31.27;;;20.08;;
38581;SDS011;24349;53.720;10.014;2023-01-25T09:06:05;31.55;;;21.00;;
38581;SDS011;24349;53.720;10.014;2023-01-25T09:08:32;32.05;;;20.08;;
38581;SDS011;24349;53.720;10.014;2023-01-25T09:11:05;31.67;;;20.13;;
38581;SDS011;24349;53.720;10.014;2023-01-25T09:13:33;32.92;;;20.90;;
38581;SDS011;24349;53.720;10.014;2023-01-25T09:16:00;29.52;;;19.30;;
38581;SDS011;24349;53.720;10.014;2023-01-25T09:18:26;29.23;;;19.77;;
38581;SDS011;24349;53.720;10.014;2023-01-25T09:20:52;31.58;;;20.50;;
38581;SDS011;24349;53.720;10.014;2023-01-25T09:23:18;29.92;;;19.27;;
38581;SDS011;24349;53.720;10.014;2023-01-25T09:25:46;32.05;;;20.42;;
38581;SDS011;24349;53.720;10.014;2023-01-25T09:28:12;31.00;;;20.80;;
38581;SDS011;24349;53.720;10.014;2023-01-25T09:30:38;31.80;;;20.05;;
38581;SDS011;24349;53.720;10.014;2023-01-25T09:33:03;29.73;;;19.85;;
38581;SDS011;24349;53.720;10.014;2023-01-25T09:35:29;32.25;;;20.60;;
38581;SDS011;24349;53.720;10.014;2023-01-25T09:37:55;32.20;;;20.00;;
38581;SDS011;24349;53.720;10.014;2023-01-25T09:40:21;34.13;;;20.38;;
38581;SDS011;24349;53.720;10.014;2023-01-25T09:43:05;31.58;;;20.58;;
38581;SDS011;24349;53.720;10.014;2023-01-25T09:45:44;31.53;;;19.87;;
38581;SDS011;24349;53.720;10.014;2023-01-25T09:53:50;31.33;;;19.77;;
38581;SDS011;24349;53.720;10.014;2023-01-25T09:58:52;32.70;;;19.77;;
38581;SDS011;24349;53.720;10.014;2023-01-25T10:04:21;31.50;;;21.05;;
38581;SDS011;24349;53.720;10.014;2023-01-25T10:06:52;35.90;;;23.20;;
38581;SDS011;24349;53.720;10.014;2023-01-25T10:11:48;33.10;;;20.30;;
38581;SDS011;24349;53.720;10.014;2023-01-25T10:14:15;35.15;;;22.67;;
38581;SDS011;24349;53.720;10.014;2023-01-25T10:22:18;35.40;;;21.25;;
38581;SDS011;24349;53.720;10.014;2023-01-25T10:27:25;38.17;;;23.85;;
38581;SDS011;24349;53.720;10.014;2023-01-25T10:29:59;41.20;;;24.55;;
38581;SDS011;24349;53.720;10.014;2023-01-25T10:32:31;38.67;;;23.23;;
38581;SDS011;24349;53.720;10.014;2023-01-25T10:35:00;38.17;;;22.42;;
38581;SDS011;24349;53.720;10.014;2023-01-25T10:37:39;45.25;;;27.38;;
38581;SDS011;24349;53.720;10.014;2023-01-25T10:40:12;42.03;;;23.13;;
38581;SDS011;24349;53.720;10.014;2023-01-25T10:42:47;40.78;;;23.35;;
38581;SDS011;24349;53.720;10.014;2023-01-25T10:45:15;41.70;;;25.45;;
38581;SDS011;24349;53.720;10.014;2023-01-25T10:47:42;48.42;;;27.08;;
38581;SDS011;24349;53.720;10.014;2023-01-25T10:53:31;46.90;;;27.80;;
38581;SDS011;24349;53.720;10.014;2023-01-25T10:58:34;47.95;;;27.98;;
38581;SDS011;24349;53.720;10.014;2023-01-25T11:01:06;51.83;;;30.05;;
38581;SDS011;24349;53.720;10.014;2023-01-25T11:03:39;46.78;;;27.83;;
38581;SDS011;24349;53.720;10.014;2023-01-25T11:06:06;47.35;;;27.08;;
38581;SDS011;24349;53.720;10.014;2023-01-25T11:08:34;52.90;;;29.15;;
38581;SDS011;24349;53.720;10.014;2023-01-25T11:14:00;49.47;;;29.25;;
38581;SDS011;24349;53.720;10.014;2023-01-25T11:16:37;55.08;;;29.75;;
38581;SDS011;24349;53.720;10.014;2023-01-25T11:19:22;53.10;;;31.52;;
38581;SDS011;24349;53.720;10.014;2023-01-25T11:21:51;54.38;;;29.80;;
38581;SDS011;24349;53.720;10.014;2023-01-25T11:24:18;49.67;;;29.27;;
38581;SDS011;24349;53.720;10.014;2023-01-25T11:26:44;57.55;;;31.65;;
38581;SDS011;24349;53.720;10.014;2023-01-25T11:29:12;55.40;;;31.20;;
38581;SDS011;24349;53.720;10.014;2023-01-25T11:31:37;55.55;;;30.42;;
38581;SDS011;24349;53.720;10.014;2023-01-25T11:34:17;56.23;;;31.37;;
38581;SDS011;24349;53.720;10.014;2023-01-25T11:48:23;57.72;;;31.77;;
38581;SDS011;24349;53.720;10.014;2023-01-25T11:56:49;53.58;;;30.45;;
38581;SDS011;24349;53.720;10.014;2023-01-25T12:02:01;50.80;;;30.20;;
38581;SDS011;24349;53.720;10.014;2023-01-25T12:04:51;51.38;;;28.27;;
38581;SDS011;24349;53.720;10.014;2023-01-25T12:07:50;49.97;;;30.05;;
38581;SDS011;24349;53.720;10.014;2023-01-25T12:18:50;48.17;;;27.38;;
38581;SDS011;24349;53.720;10.014;2023-01-25T12:29:34;47.67;;;27.77;;
38581;SDS011;24349;53.720;10.014;2023-01-25T12:32:53;50.60;;;29.45;;
38581;SDS011;24349;53.720;10.014;2023-01-25T12:35:27;50.78;;;28.85;;
38581;SDS011;24349;53.720;10.014;2023-01-25T12:37:59;51.08;;;28.20;;
38581;SDS011;24349;53.720;10.014;2023-01-25T12:40:39;50.33;;;28.80;;
38581;SDS011;24349;53.720;10.014;2023-01-25T12:43:40;52.55;;;29.77;;
38581;SDS011;24349;53.720;10.014;2023-01-25T12:46:13;51.15;;;28.33;;
38581;SDS011;24349;53.720;10.014;2023-01-25T12:48:46;45.63;;;27.38;;
38581;SDS011;24349;53.720;10.014;2023-01-25T12:51:17;47.50;;;27.50;;
38581;SDS011;24349;53.720;10.014;2023-01-25T12:53:46;45.15;;;26.27;;
38581;SDS011;24349;53.720;10.014;2023-01-25T12:56:47;48.53;;;29.05;;
38581;SDS011;24349;53.720;10.014;2023-01-25T12:59:22;46.63;;;26.23;;
38581;SDS011;24349;53.720;10.014;2023-01-25T13:02:06;49.45;;;27.42;;
38581;SDS011;24349;53.720;10.014;2023-01-25T13:04:52;45.28;;;24.63;;
38581;SDS011;24349;53.720;10.014;2023-01-25T13:10:28;47.20;;;27.63;;
38581;SDS011;24349;53.720;10.014;2023-01-25T13:12:59;45.28;;;26.10;;
38581;SDS011;24349;53.720;10.014;2023-01-25T13:15:43;48.85;;;26.58;;
38581;SDS011;24349;53.720;10.014;2023-01-25T13:20:58;42.03;;;23.92;;
38581;SDS011;24349;53.720;10.014;2023-01-25T13:28:45;49.55;;;26.45;;
38581;SDS011;24349;53.720;10.014;2023-01-25T13:34:09;47.13;;;24.98;;
38581;SDS011;24349;53.720;10.014;2023-01-25T13:36:37;47.45;;;27.35;;
38581;SDS011;24349;53.720;10.014;2023-01-25T13:44:24;49.65;;;26.25;;
38581;SDS011;24349;53.720;10.014;2023-01-25T13:46:52;49.28;;;28.40;;
38581;SDS011;24349;53.720;10.014;2023-01-25T13:52:19;47.28;;;25.25;;
38581;SDS011;24349;53.720;10.014;2023-01-25T13:54:46;47.63;;;27.30;;
38581;SDS011;24349;53.720;10.014;2023-01-25T13:57:14;48.42;;;26.52;;
38581;SDS011;24349;53.720;10.014;2023-01-25T14:00:00;44.58;;;24.08;;
38581;SDS011;24349;53.720;10.014;2023-01-25T14:02:30;51.38;;;28.27;;
38581;SDS011;24349;53.720;10.014;2023-01-25T14:04:58;49.55;;;27.92;;
38581;SDS011;24349;53.720;10.014;2023-01-25T14:07:30;47.60;;;27.90;;
38581;SDS011;24349;53.720;10.014;2023-01-25T14:09:59;48.70;;;27.75;;
38581;SDS011;24349;53.720;10.014;2023-01-25T14:12:40;51.03;;;27.30;;
38581;SDS011;24349;53.720;10.014;2023-01-25T14:18:09;50.85;;;27.58;;
38581;SDS011;24349;53.720;10.014;2023-01-25T14:20:38;51.60;;;27.90;;
38581;SDS011;24349;53.720;10.014;2023-01-25T14:23:04;55.25;;;29.45;;
38581;SDS011;24349;53.720;10.014;2023-01-25T14:25:43;48.13;;;27.20;;
38581;SDS011;24349;53.720;10.014;2023-01-25T14:28:10;50.92;;;28.85;;
38581;SDS011;24349;53.720;10.014;2023-01-25T14:30:38;49.70;;;28.02;;
38581;SDS011;24349;53.720;10.014;2023-01-25T14:33:18;51.58;;;29.50;;
38581;SDS011;24349;53.720;10.014;2023-01-25T14:35:48;50.72;;;29.17;;
38581;SDS011;24349;53.720;10.014;2023-01-25T14:43:56;50.90;;;27.30;;
38581;SDS011;24349;53.720;10.014;2023-01-25T14:46:27;49.13;;;27.50;;
38581;SDS011;24349;53.720;10.014;2023-01-25T14:54:26;50.38;;;28.48;;
38581;SDS011;24349;53.720;10.014;2023-01-25T14:56:58;48.88;;;28.00;;
38581;SDS011;24349;53.720;10.014;2023-01-25T15:02:31;50.08;;;29.10;;
38581;SDS011;24349;53.720;10.014;2023-01-25T15:05:04;55.42;;;28.80;;
38581;SDS011;24349;53.720;10.014;2023-01-25T15:07:32;50.28;;;28.08;;
38581;SDS011;24349;53.720;10.014;2023-01-25T15:10:20;52.97;;;29.38;;
38581;SDS011;24349;53.720;10.014;2023-01-25T15:15:36;48.20;;;25.75;;
38581;SDS011;24349;53.720;10.014;2023-01-25T15:18:39;51.53;;;28.65;;
38581;SDS011;24349;53.720;10.014;2023-01-25T15:21:06;52.45;;;28.92;;
38581;SDS011;24349;53.720;10.014;2023-01-25T15:23:36;50.92;;;27.58;;
38581;SDS011;24349;53.720;10.014;2023-01-25T15:26:10;54.30;;;29.45;;
38581;SDS011;24349;53.720;10.014;2023-01-25T15:28:47;55.92;;;29.75;;
38581;SDS011;24349;53.720;10.014;2023-01-25T15:31:15;55.30;;;30.30;;
38581;SDS011;24349;53.720;10.014;2023-01-25T15:33:49;59.92;;;32.53;;
38581;SDS011;24349;53.720;10.014;2023-01-25T15:36:15;55.30;;;29.70;;
38581;SDS011;24349;53.720;10.014;2023-01-25T15:38:41;56.85;;;29.92;;
38581;SDS011;24349;53.720;10.014;2023-01-25T15:41:07;60.65;;;31.75;;
38581;SDS011;24349;53.720;10.014;2023-01-25T15:43:34;58.70;;;29.80;;
38581;SDS011;24349;53.720;10.014;2023-01-25T15:45:59;54.67;;;29.08;;
38581;SDS011;24349;53.720;10.014;2023-01-25T15:48:29;63.85;;;32.90;;
38581;SDS011;24349;53.720;10.014;2023-01-25T15:50:58;65.78;;;33.03;;
38581;SDS011;24349;53.720;10.014;2023-01-25T15:53:24;57.33;;;30.60;;
38581;SDS011;24349;53.720;10.014;2023-01-25T15:55:55;60.47;;;31.95;;
38581;SDS011;24349;53.720;10.014;2023-01-25T15:58:25;60.10;;;32.22;;
38581;SDS011;24349;53.720;10.014;2023-01-25T16:00:52;65.22;;;33.15;;
38581;SDS011;24349;53.720;10.014;2023-01-25T16:03:18;68.38;;;35.88;;
38581;SDS011;24349;53.720;10.014;2023-01-25T16:05:48;64.30;;;33.08;;
38581;SDS011;24349;53.720;10.014;2023-01-25T16:08:17;58.75;;;31.20;;
38581;SDS011;24349;53.720;10.014;2023-01-25T16:10:44;58.08;;;29.00;;
38581;SDS011;24349;53.720;10.014;2023-01-25T16:13:10;61.88;;;30.63;;
38581;SDS011;24349;53.720;10.014;2023-01-25T16:15:36;61.13;;;30.88;;
38581;SDS011;24349;53.720;10.014;2023-01-25T16:18:03;64.93;;;32.78;;
38581;SDS011;24349;53.720;10.014;2023-01-25T16:20:29;67.18;;;32.75;;
38581;SDS011;24349;53.720;10.014;2023-01-25T16:22:55;61.85;;;28.55;;
38581;SDS011;24349;53.720;10.014;2023-01-25T16:25:21;69.25;;;33.28;;